Time;durP1;ratioP1;P1;durP2;ratioP2;P2;SDS_P1;SDS_P2;PMS_P1;PMS_P2;Temp;Humidity;BMP_temperature;BMP_pressure;BME280_temperature;BME280_humidity;BME280_pressure;Samples;Min_cycle;Max_cycle;Signal;HPM_P1;HPM_P2
2024/01/21 00:02:25;;;;;;;8.27;3.07;;;;;;;-145.69;52.06;52406.75;5134533;27;20292;-80
2024/01/21 00:04:52;;;;;;;6.63;2.30;;;;;;;-145.69;52.54;52396.84;5133292;27;20200;-79
2024/01/21 00:07:18;;;;;;;3.73;2.13;;;;;;;-145.69;51.96;52404.78;5134431;27;20203;-80
2024/01/21 00:09:45;;;;;;;5.10;1.40;;;;;;;-145.69;46.88;52420.63;5134333;27;20189;-81
2024/01/21 00:12:11;;;;;;;2.73;1.53;;;;;;;-145.69;46.81;52430.53;5134368;27;20295;-80
2024/01/21 00:14:39;;;;;;;3.53;1.70;;;;;;;-145.69;47.15;52396.84;5133758;27;20211;-80
2024/01/21 00:17:07;;;;;;;2.67;1.63;;;;;;;-145.69;48.11;52392.91;5134081;27;20224;-81
2024/01/21 00:19:33;;;;;;;3.73;1.70;;;;;;;-145.69;48.24;52381.00;5134350;27;20234;-80
2024/01/21 00:22:00;;;;;;;2.30;1.40;;;;;;;-145.69;47.91;52424.59;5134099;27;20196;-80
2024/01/21 00:24:28;;;;;;;2.57;1.37;;;;;;;-145.69;49.05;52402.78;5118871;27;20205;-80
2024/01/21 00:26:55;;;;;;;4.57;1.97;;;;;;;-145.69;47.06;52410.72;5113540;28;20194;-80
2024/01/21 00:29:21;;;;;;;4.83;1.60;;;;;;;-145.69;46.74;52424.59;5125080;27;20566;-80
2024/01/21 00:31:49;;;;;;;2.90;1.50;;;;;;;-145.69;45.00;52440.44;5133857;27;20651;-80
2024/01/21 00:34:15;;;;;;;3.30;1.60;;;;;;;-145.69;45.24;52428.53;5133315;27;20192;-79
2024/01/21 00:36:42;;;;;;;2.80;1.30;;;;;;;-145.69;45.38;52388.94;5133274;27;20220;-80
2024/01/21 00:39:08;;;;;;;2.70;1.40;;;;;;;-145.69;45.24;52414.69;5133672;27;20682;-79
2024/01/21 00:41:35;;;;;;;3.17;1.77;;;;;;;-145.69;45.39;52398.84;5134035;27;20232;-79
2024/01/21 00:44:01;;;;;;;3.47;1.20;;;;;;;-145.69;45.80;52404.78;5133902;27;20215;-80
2024/01/21 00:46:29;;;;;;;2.10;1.30;;;;;;;-145.69;45.61;52392.91;5133635;27;20212;-80
2024/01/21 00:48:57;;;;;;;3.20;1.40;;;;;;;-145.69;45.57;52424.59;5133458;27;20234;-79
2024/01/21 00:51:24;;;;;;;2.17;1.63;;;;;;;-145.69;45.65;52416.66;5133925;27;20222;-79
2024/01/21 00:53:50;;;;;;;1.63;1.20;;;;;;;-145.69;45.35;52388.94;5134012;27;20212;-79
2024/01/21 00:56:17;;;;;;;1.77;1.23;;;;;;;-145.69;45.52;52412.69;5133610;28;20217;-79
2024/01/21 00:58:43;;;;;;;2.30;1.10;;;;;;;-145.69;45.17;52392.91;5133926;27;20218;-79
2024/01/21 01:01:10;;;;;;;3.73;1.37;;;;;;;-145.69;44.78;52392.91;5133926;27;20197;-80
2024/01/21 01:03:37;;;;;;;3.50;1.63;;;;;;;-145.69;44.82;52384.97;5133856;27;20192;-81
2024/01/21 01:06:06;;;;;;;2.13;1.20;;;;;;;-145.69;45.19;52384.97;5133610;27;20200;-80
2024/01/21 01:08:32;;;;;;;3.13;1.30;;;;;;;-145.69;44.85;52430.53;5133281;28;20655;-78
2024/01/21 01:11:02;;;;;;;1.60;1.30;;;;;;;-145.69;45.21;52384.97;5133708;27;20204;-81
2024/01/21 01:13:29;;;;;;;1.47;1.33;;;;;;;-145.69;44.61;52386.97;5133484;27;20197;-80
2024/01/21 01:15:55;;;;;;;2.37;1.50;;;;;;;-145.69;46.30;52398.84;5136135;27;20220;-80
2024/01/21 01:18:22;;;;;;;3.37;1.10;;;;;;;-145.69;46.13;52436.47;5137236;27;20192;-79
2024/01/21 01:20:48;;;;;;;1.87;1.17;;;;;;;-145.69;47.16;52388.94;5137788;27;20647;-80
2024/01/21 01:23:16;;;;;;;8.10;1.60;;;;;;;-145.69;47.48;52398.84;5137793;27;20197;-80
2024/01/21 01:25:42;;;;;;;2.73;1.23;;;;;;;-145.69;48.14;52398.84;5137556;27;20603;-80
2024/01/21 01:28:09;;;;;;;2.43;1.00;;;;;;;-145.69;49.15;52384.97;5137330;27;20200;-80
2024/01/21 01:30:36;;;;;;;2.83;1.37;;;;;;;-145.69;49.36;52454.28;5137510;27;20219;-79
2024/01/21 01:33:03;;;;;;;2.37;1.50;;;;;;;-145.69;49.92;52384.97;5141684;27;20293;-79
2024/01/21 01:35:29;;;;;;;2.30;1.50;;;;;;;-145.69;50.09;52412.69;5137264;27;20249;-80
2024/01/21 01:37:56;;;;;;;3.93;2.23;;;;;;;-145.69;51.20;52396.84;5137263;27;20227;-81
2024/01/21 01:40:24;;;;;;;3.90;1.83;;;;;;;-145.69;51.20;52418.63;5137312;27;20211;-79
2024/01/21 01:42:56;;;;;;;5.13;2.33;;;;;;;-145.69;51.50;52416.66;5137187;27;20197;-79
2024/01/21 01:45:23;;;;;;;3.07;2.17;;;;;;;-145.69;51.71;52398.84;5116894;28;20200;-79
2024/01/21 01:47:49;;;;;;;5.60;2.07;;;;;;;-145.69;52.38;52400.81;5121357;27;20682;-80
2024/01/21 01:50:16;;;;;;;4.00;2.37;;;;;;;-145.69;52.49;52416.66;5137371;27;20224;-79
2024/01/21 01:52:43;;;;;;;4.30;2.00;;;;;;;-145.69;52.33;52434.47;5137244;27;20203;-80
2024/01/21 01:55:10;;;;;;;4.93;2.17;;;;;;;-145.69;53.39;52414.69;5136855;27;20201;-78
2024/01/21 01:57:38;;;;;;;5.47;2.53;;;;;;;-145.69;52.19;52428.53;5135231;27;20304;-81
2024/01/21 02:00:06;;;;;;;4.40;2.30;;;;;;;-145.69;52.48;52400.81;5137072;27;20228;-79
2024/01/21 02:02:33;;;;;;;5.07;2.50;;;;;;;-145.69;53.45;52422.59;5136504;27;20197;-81
2024/01/21 02:05:03;;;;;;;4.00;2.53;;;;;;;-145.69;54.20;52428.53;5136840;27;20197;-80
2024/01/21 02:07:30;;;;;;;6.07;2.40;;;;;;;-145.69;53.65;52410.72;5136866;27;20197;-80
2024/01/21 02:09:57;;;;;;;6.13;2.20;;;;;;;-145.69;54.23;52438.44;5136913;27;20673;-81
2024/01/21 02:12:23;;;;;;;3.47;1.90;;;;;;;-145.69;54.03;52428.53;5136841;27;20203;-80
2024/01/21 02:14:51;;;;;;;3.80;2.30;;;;;;;-145.69;54.08;52392.91;5136389;27;20197;-78
2024/01/21 02:17:17;;;;;;;2.77;1.97;;;;;;;-145.69;54.36;52404.78;5136333;27;20244;-81
2024/01/21 02:19:44;;;;;;;4.73;1.87;;;;;;;-145.69;53.75;52416.66;5136672;27;20197;-81
2024/01/21 02:22:10;;;;;;;3.10;1.93;;;;;;;-145.69;53.74;52468.16;5132935;27;20197;-81
2024/01/21 02:24:38;;;;;;;2.90;1.80;;;;;;;-145.69;54.68;52424.59;5128355;27;20204;-80
2024/01/21 02:27:05;;;;;;;3.67;1.90;;;;;;;-145.69;53.80;52420.63;5136072;27;20201;-80
2024/01/21 02:29:32;;;;;;;4.37;1.90;;;;;;;-145.69;54.00;52458.25;5135502;27;20197;-80
2024/01/21 02:31:58;;;;;;;4.47;1.87;;;;;;;-145.69;54.20;52392.91;5136138;27;20204;-80
2024/01/21 02:34:25;;;;;;;4.47;2.10;;;;;;;-145.69;53.70;52438.44;5136145;27;20189;-80
2024/01/21 02:36:52;;;;;;;4.87;1.90;;;;;;;-145.69;53.95;52420.63;5135905;27;20225;-80
2024/01/21 02:39:18;;;;;;;4.83;2.03;;;;;;;-145.69;54.47;52420.63;5136515;27;20676;-80
2024/01/21 02:41:46;;;;;;;2.67;1.83;;;;;;;-145.69;54.15;52408.75;5136169;27;20540;-81
2024/01/21 02:44:12;;;;;;;4.17;2.27;;;;;;;-145.69;54.24;52440.44;5135858;27;20200;-81
2024/01/21 02:46:39;;;;;;;4.43;2.17;;;;;;;-145.69;54.27;52414.69;5135819;27;20193;-80
2024/01/21 02:49:06;;;;;;;5.57;2.33;;;;;;;-145.69;53.91;52416.66;5135528;27;20212;-80
2024/01/21 02:51:32;;;;;;;3.27;1.70;;;;;;;-145.69;53.85;52428.53;5136089;27;20197;-81
2024/01/21 02:53:59;;;;;;;2.43;1.80;;;;;;;-145.69;53.07;52412.69;5135731;27;20581;-80
2024/01/21 02:56:27;;;;;;;5.38;2.70;;;;;;;-145.69;52.94;52424.59;5135208;27;20445;-80
2024/01/21 02:58:55;;;;;;;3.53;2.23;;;;;;;-145.69;52.51;52392.91;5136076;27;20254;-79
2024/01/21 03:01:22;;;;;;;5.17;2.13;;;;;;;-145.69;53.00;52420.63;5135777;27;20395;-78
2024/01/21 03:03:48;;;;;;;4.03;2.23;;;;;;;-145.69;52.79;52458.25;5135484;27;20189;-80
2024/01/21 03:06:15;;;;;;;4.63;1.97;;;;;;;-145.69;53.09;52422.59;5135950;27;20302;-81
2024/01/21 03:08:41;;;;;;;5.83;2.27;;;;;;;-145.69;53.06;52394.88;5135502;27;20209;-81
2024/01/21 03:11:08;;;;;;;3.80;2.00;;;;;;;-145.69;53.22;52444.38;5135309;27;20196;-80
2024/01/21 03:13:35;;;;;;;5.10;2.00;;;;;;;-145.69;52.80;52432.50;5135786;27;20201;-81
2024/01/21 03:16:03;;;;;;;6.13;2.47;;;;;;;-145.69;52.44;52404.78;5135871;27;20283;-81
2024/01/21 03:18:29;;;;;;;3.30;2.40;;;;;;;-145.69;52.12;52404.78;5135261;27;20224;-80
2024/01/21 03:20:56;;;;;;;3.87;2.23;;;;;;;-145.69;51.29;52416.66;5135525;27;20276;-80
2024/01/21 03:23:22;;;;;;;3.13;2.00;;;;;;;-145.69;50.33;52430.53;5135402;27;20239;-80
2024/01/21 03:25:49;;;;;;;3.90;2.00;;;;;;;-145.69;50.67;52404.78;5135524;27;20200;-80
2024/01/21 03:28:15;;;;;;;5.03;2.10;;;;;;;-145.69;50.67;52452.31;5135476;27;20205;-79
2024/01/21 03:30:42;;;;;;;4.63;2.20;;;;;;;-145.69;50.89;52396.84;5134935;27;20282;-81
2024/01/21 03:33:10;;;;;;;4.50;2.40;;;;;;;-145.69;51.17;52452.31;5134332;27;20203;-80
2024/01/21 03:35:38;;;;;;;3.63;1.90;;;;;;;-145.69;52.39;52388.94;5135176;27;20193;-80
2024/01/21 03:38:04;;;;;;;5.90;2.53;;;;;;;-145.69;51.75;52396.84;5133994;27;20734;-81
2024/01/21 03:40:31;;;;;;;4.73;2.23;;;;;;;-145.69;52.29;52390.91;5134568;27;20204;-81
2024/01/21 03:42:57;;;;;;;2.80;1.90;;;;;;;-145.69;52.50;52462.22;5134566;27;20228;-80
2024/01/21 03:45:24;;;;;;;5.37;2.37;;;;;;;-145.69;53.13;52434.47;5134522;27;20204;-80
2024/01/21 03:47:51;;;;;;;5.03;2.63;;;;;;;-145.69;53.29;52428.53;5134618;27;20268;-80
2024/01/21 03:50:20;;;;;;;4.40;2.53;;;;;;;-145.69;53.28;52392.91;5134994;27;20192;-81
2024/01/21 03:52:51;;;;;;;4.83;2.67;;;;;;;-145.69;53.00;52430.53;5134363;27;20696;-80
2024/01/21 03:55:18;;;;;;;5.37;2.43;;;;;;;-145.69;53.20;52410.72;5134795;27;20651;-80
2024/01/21 03:57:45;;;;;;;4.70;2.63;;;;;;;-145.69;53.20;52400.81;5134499;27;20711;-81
2024/01/21 04:00:13;;;;;;;4.03;2.77;;;;;;;-145.69;53.13;52410.72;5134589;27;20192;-81
2024/01/21 04:02:40;;;;;;;4.77;2.63;;;;;;;-145.69;52.31;52408.75;5138049;27;20196;-80
2024/01/21 04:05:08;;;;;;;3.70;2.13;;;;;;;-145.69;52.62;52396.84;5155536;27;20196;-80
2024/01/21 04:07:35;;;;;;;6.60;2.80;;;;;;;-145.69;52.68;52424.59;5151684;27;20196;-80
2024/01/21 04:10:03;;;;;;;4.93;2.80;;;;;;;-145.69;52.55;52444.38;5134518;27;20212;-80
2024/01/21 04:12:29;;;;;;;6.40;3.00;;;;;;;-145.69;52.82;52384.97;5134710;27;20243;-81
2024/01/21 04:14:56;;;;;;;9.27;3.20;;;;;;;-145.69;52.84;52408.75;5135094;27;20255;-80
2024/01/21 04:17:24;;;;;;;8.63;3.60;;;;;;;-145.69;52.72;52392.91;5134120;27;20303;-81
2024/01/21 04:19:50;;;;;;;6.63;3.03;;;;;;;-145.69;52.74;52428.53;5134346;27;20280;-81
2024/01/21 04:22:18;;;;;;;5.70;3.57;;;;;;;-145.69;53.22;52422.59;5134164;27;20197;-80
2024/01/21 04:24:46;;;;;;;5.20;3.10;;;;;;;-145.69;53.12;52404.78;5133946;27;20214;-80
2024/01/21 04:27:13;;;;;;;8.43;3.80;;;;;;;-145.69;53.38;52392.91;5134200;27;20197;-81
2024/01/21 04:29:39;;;;;;;6.93;3.57;;;;;;;-145.69;53.34;52392.91;5134139;27;20206;-78
2024/01/21 04:32:06;;;;;;;6.90;3.53;;;;;;;-145.69;52.89;52460.22;5128842;27;20200;-79
2024/01/21 04:34:33;;;;;;;6.47;3.33;;;;;;;-145.69;53.03;52392.91;5132517;27;20698;-78
2024/01/21 04:37:01;;;;;;;6.27;3.37;;;;;;;-145.69;53.57;52386.97;5135088;27;20212;-78
2024/01/21 04:39:27;;;;;;;5.73;3.30;;;;;;;-145.69;53.63;52404.78;5134126;27;20570;-79
2024/01/21 04:41:56;;;;;;;5.10;3.30;;;;;;;-145.69;53.10;52434.47;5133806;27;20596;-79
2024/01/21 04:44:23;;;;;;;6.60;3.20;;;;;;;-145.69;53.31;52428.53;5133943;27;20192;-78
2024/01/21 04:46:58;;;;;;;5.90;3.10;;;;;;;-145.69;53.09;52416.66;5133458;27;20212;-79
2024/01/21 04:49:25;;;;;;;6.10;3.37;;;;;;;-145.69;53.70;52424.59;5133976;27;20196;-81
2024/01/21 04:51:52;;;;;;;6.00;3.70;;;;;;;-145.69;54.11;52416.66;5133389;27;20627;-80
2024/01/21 04:54:18;;;;;;;5.50;3.20;;;;;;;-145.69;54.20;52432.50;5132729;27;20231;-79
2024/01/21 04:56:45;;;;;;;5.93;3.70;;;;;;;-145.69;53.80;52398.84;5133932;28;20547;-79
2024/01/21 04:59:13;;;;;;;6.10;3.50;;;;;;;-145.69;54.05;52416.66;5133782;27;20203;-78
2024/01/21 05:01:40;;;;;;;8.97;4.23;;;;;;;-145.69;54.28;52402.78;5133792;27;20196;-79
2024/01/21 05:04:07;;;;;;;9.50;4.30;;;;;;;-145.69;53.92;52430.53;5133500;27;20685;-79
2024/01/21 05:06:33;;;;;;;8.53;3.93;;;;;;;-145.69;54.28;52414.69;5133405;27;20283;-79
2024/01/21 05:09:00;;;;;;;9.23;3.80;;;;;;;-145.69;54.15;52412.69;5133086;27;20201;-79
2024/01/21 05:11:26;;;;;;;7.83;3.67;;;;;;;-145.69;54.24;52404.78;5133534;27;20540;-79
2024/01/21 05:13:53;;;;;;;8.63;3.60;;;;;;;-145.69;54.74;52408.75;5133593;27;20201;-79
2024/01/21 05:16:21;;;;;;;8.30;4.13;;;;;;;-145.69;54.76;52408.75;5133738;28;20279;-79
2024/01/21 05:18:47;;;;;;;8.03;3.77;;;;;;;-145.69;55.19;52388.94;5133019;27;20646;-80
2024/01/21 05:21:19;;;;;;;9.67;4.17;;;;;;;-145.69;55.01;52390.91;5133426;27;20211;-79
2024/01/21 05:23:45;;;;;;;9.20;3.80;;;;;;;-145.69;55.62;52432.50;5133605;27;20197;-79
2024/01/21 05:26:12;;;;;;;9.20;4.40;;;;;;;-145.69;55.33;52440.44;5132723;27;20204;-80
2024/01/21 05:28:40;;;;;;;7.37;4.00;;;;;;;-145.69;55.49;52416.66;5133120;27;20188;-79
2024/01/21 05:31:06;;;;;;;11.90;5.00;;;;;;;-145.69;55.75;52432.50;5133145;27;20193;-79
2024/01/21 05:33:34;;;;;;;7.43;4.77;;;;;;;-145.69;55.34;52418.63;5133657;27;20240;-80
2024/01/21 05:36:00;;;;;;;9.83;4.67;;;;;;;-145.69;55.77;52404.78;5132871;27;20204;-79
2024/01/21 05:38:27;;;;;;;9.70;4.83;;;;;;;-145.69;55.26;52452.31;5133451;27;20224;-79
2024/01/21 05:40:53;;;;;;;8.73;5.03;;;;;;;-145.69;55.19;52410.72;5133502;27;20220;-79
2024/01/21 05:43:20;;;;;;;12.17;4.23;;;;;;;-145.69;55.17;52440.44;5133024;27;20216;-79
2024/01/21 05:45:47;;;;;;;9.70;4.40;;;;;;;-145.69;55.24;52448.34;5133464;28;20197;-79
2024/01/21 05:48:13;;;;;;;7.87;4.67;;;;;;;-145.69;55.43;52424.59;5132762;27;20228;-80
2024/01/21 05:50:41;;;;;;;8.83;4.57;;;;;;;-145.69;55.44;52408.75;5133186;27;20201;-80
2024/01/21 05:53:08;;;;;;;9.00;4.43;;;;;;;-145.69;55.27;52404.78;5133067;27;20197;-80
2024/01/21 05:55:35;;;;;;;8.27;4.40;;;;;;;-145.69;55.73;52428.53;5133092;27;20203;-80
2024/01/21 05:58:01;;;;;;;9.97;4.27;;;;;;;-145.69;55.46;52432.50;5133289;27;20311;-79
2024/01/21 06:00:28;;;;;;;11.07;4.87;;;;;;;-145.69;55.54;52432.50;5132909;28;20193;-81
2024/01/21 06:02:54;;;;;;;10.10;4.60;;;;;;;-145.69;55.24;52448.34;5135019;27;20200;-80
2024/01/21 06:05:22;;;;;;;9.60;4.50;;;;;;;-145.69;55.66;52432.50;5136201;27;20204;-81
2024/01/21 06:07:49;;;;;;;7.10;4.37;;;;;;;-145.69;55.72;52424.59;5136030;27;20655;-80
2024/01/21 06:10:18;;;;;;;10.27;4.37;;;;;;;-145.69;55.49;52428.53;5136888;27;20516;-80
2024/01/21 06:12:44;;;;;;;8.83;4.53;;;;;;;-145.69;55.43;52434.47;5136794;27;20204;-79
2024/01/21 06:15:16;;;;;;;8.17;4.40;;;;;;;-145.69;55.51;52428.53;5136820;27;20225;-80
2024/01/21 06:17:43;;;;;;;11.97;4.67;;;;;;;-145.69;55.44;52424.59;5136500;27;20239;-78
2024/01/21 06:20:10;;;;;;;8.73;4.60;;;;;;;-145.69;55.87;52416.66;5136749;27;20204;-81
2024/01/21 06:22:37;;;;;;;8.43;4.77;;;;;;;-145.69;55.75;52420.63;5136095;27;20555;-81
2024/01/21 06:25:06;;;;;;;7.20;4.07;;;;;;;-145.69;55.27;52400.81;5136507;27;20604;-80
2024/01/21 06:27:35;;;;;;;8.90;4.50;;;;;;;-145.69;55.46;52422.59;5136430;27;20201;-80
2024/01/21 06:30:12;;;;;;;7.03;4.07;;;;;;;-145.69;56.14;52402.78;5136438;27;20212;-80
2024/01/21 06:32:38;;;;;;;8.73;4.17;;;;;;;-145.69;56.02;52430.53;5136370;27;20204;-80
2024/01/21 06:35:06;;;;;;;8.97;4.50;;;;;;;-145.69;56.01;52416.66;5135482;27;20204;-81
2024/01/21 06:37:32;;;;;;;7.33;4.13;;;;;;;-145.69;56.01;52416.66;5118865;27;20202;-81
2024/01/21 06:39:59;;;;;;;8.70;4.63;;;;;;;-145.69;56.47;52420.63;5115651;28;20216;-80
2024/01/21 06:42:28;;;;;;;8.03;4.20;;;;;;;-145.69;55.82;52460.22;5115629;28;20202;-80
2024/01/21 06:44:54;;;;;;;7.30;4.07;;;;;;;-145.69;56.50;52408.75;5115501;28;20202;-80
2024/01/21 06:47:20;;;;;;;9.37;4.63;;;;;;;-145.69;56.50;52408.75;5115502;28;20238;-80
2024/01/21 06:49:47;;;;;;;9.73;3.87;;;;;;;-145.69;56.00;52440.44;5115938;28;20197;-79
2024/01/21 06:52:14;;;;;;;10.30;4.43;;;;;;;-145.69;56.90;52420.63;5115535;28;20647;-80
2024/01/21 06:54:41;;;;;;;10.37;4.60;;;;;;;-145.69;56.60;52408.75;5115683;28;20232;-78
2024/01/21 06:57:07;;;;;;;7.63;3.60;;;;;;;-145.69;56.30;52434.47;5115270;28;20233;-80
2024/01/21 06:59:35;;;;;;;9.40;3.83;;;;;;;-145.69;56.92;52408.75;5115606;28;20683;-80
2024/01/21 07:02:02;;;;;;;6.43;3.73;;;;;;;-145.69;56.69;52446.38;5115822;28;20564;-78
2024/01/21 07:04:28;;;;;;;6.60;3.57;;;;;;;-145.69;56.90;52420.63;5117041;27;20204;-80
2024/01/21 07:06:55;;;;;;;8.10;3.60;;;;;;;-145.69;56.65;52422.59;5136039;27;20192;-80
2024/01/21 07:09:22;;;;;;;8.70;3.90;;;;;;;-145.69;56.20;52412.69;5135817;27;20250;-80
2024/01/21 07:11:49;;;;;;;7.40;4.27;;;;;;;-145.69;56.12;52440.44;5135049;27;20555;-81
2024/01/21 07:14:18;;;;;;;6.90;3.93;;;;;;;-145.69;56.10;52414.69;5134914;27;20201;-79
2024/01/21 07:16:46;;;;;;;6.10;3.43;;;;;;;-145.69;56.47;52420.63;5134462;27;20200;-81
2024/01/21 07:19:13;;;;;;;8.00;3.30;;;;;;;-145.69;56.57;52414.69;5135024;27;20220;-80
2024/01/21 07:21:39;;;;;;;6.50;3.20;;;;;;;-145.69;56.22;52400.81;5135206;27;20220;-80
2024/01/21 07:24:06;;;;;;;9.37;3.60;;;;;;;-145.69;56.15;52373.09;5134511;27;20208;-81
2024/01/21 07:26:32;;;;;;;6.77;3.70;;;;;;;-145.69;55.67;52396.84;5135388;27;20205;-81
2024/01/21 07:28:59;;;;;;;7.40;3.30;;;;;;;-145.69;55.92;52398.84;5135583;27;20197;-78
2024/01/21 07:31:25;;;;;;;5.87;2.87;;;;;;;-145.69;56.12;52414.69;5135146;27;20215;-78
2024/01/21 07:33:53;;;;;;;5.13;2.97;;;;;;;-145.69;55.81;52400.81;5135174;27;20280;-78
2024/01/21 07:36:19;;;;;;;5.53;3.10;;;;;;;-145.69;55.95;52446.38;5135062;27;20200;-78
2024/01/21 07:38:46;;;;;;;6.77;2.87;;;;;;;-145.69;55.50;52452.31;5135234;27;20578;-79
2024/01/21 07:41:13;;;;;;;4.13;2.70;;;;;;;-145.69;56.02;52392.91;5135330;27;20201;-81
2024/01/21 07:43:39;;;;;;;6.27;2.90;;;;;;;-145.69;56.11;52418.63;5135093;27;20200;-79
2024/01/21 07:46:06;;;;;;;4.33;2.50;;;;;;;-145.69;55.54;52394.88;5135097;27;20197;-82
2024/01/21 07:48:32;;;;;;;6.53;2.50;;;;;;;-145.69;55.52;52424.59;5134843;27;20232;-80
2024/01/21 07:51:00;;;;;;;5.77;2.67;;;;;;;-145.69;56.21;52424.59;5135075;27;20204;-80
2024/01/21 07:53:26;;;;;;;6.07;2.80;;;;;;;-145.69;55.61;52400.81;5134551;27;20204;-80
2024/01/21 07:55:54;;;;;;;4.30;2.03;;;;;;;-145.69;55.29;52394.88;5135058;27;20196;-80
2024/01/21 07:58:20;;;;;;;2.63;1.87;;;;;;;-145.69;56.32;52396.84;5134596;27;20260;-80
2024/01/21 08:00:47;;;;;;;4.77;1.80;;;;;;;-145.69;55.64;52424.59;5134748;27;20677;-80
2024/01/21 08:03:14;;;;;;;4.57;1.97;;;;;;;-145.69;55.42;52438.44;5134800;27;20208;-80
2024/01/21 08:05:40;;;;;;;5.83;2.30;;;;;;;-145.69;55.57;52412.69;5134798;27;20670;-80
2024/01/21 08:08:08;;;;;;;4.23;2.20;;;;;;;-145.69;55.92;52363.19;5134248;27;20193;-81
2024/01/21 08:10:34;;;;;;;2.20;1.53;;;;;;;-145.69;55.62;52377.06;5134519;27;20204;-79
2024/01/21 08:13:01;;;;;;;5.57;2.53;;;;;;;-145.69;55.14;52404.78;5134454;27;20695;-81
2024/01/21 08:15:28;;;;;;;5.77;1.90;;;;;;;-145.69;55.48;52388.94;5134143;27;20250;-79
2024/01/21 08:17:54;;;;;;;5.30;1.70;;;;;;;-145.69;55.67;52424.59;5133929;27;20259;-78
2024/01/21 08:20:21;;;;;;;4.00;2.10;;;;;;;-145.69;55.56;52390.91;5133559;27;20681;-79
2024/01/21 08:22:47;;;;;;;5.23;1.93;;;;;;;-145.69;55.06;52392.91;5133070;27;20235;-78
2024/01/21 08:25:16;;;;;;;2.73;1.90;;;;;;;-145.69;54.41;52396.84;5133101;27;20600;-79
2024/01/21 08:27:42;;;;;;;2.27;1.70;;;;;;;-145.69;55.23;52390.91;5134452;27;20192;-82
2024/01/21 08:30:10;;;;;;;3.30;1.47;;;;;;;-145.69;54.91;52388.94;5114317;27;20206;-80
2024/01/21 08:32:37;;;;;;;3.73;2.00;;;;;;;-145.69;54.41;52388.94;5113834;28;20227;-82
2024/01/21 08:35:04;;;;;;;4.73;1.83;;;;;;;-145.69;53.54;52400.81;5121400;27;20200;-80
2024/01/21 08:37:31;;;;;;;3.40;1.40;;;;;;;-145.69;53.27;52384.97;5134124;27;20197;-82
2024/01/21 08:39:58;;;;;;;4.17;1.50;;;;;;;-145.69;53.93;52390.91;5133577;27;20221;-82
2024/01/21 08:42:26;;;;;;;3.07;1.50;;;;;;;-145.69;52.87;52377.06;5134037;27;20433;-82
2024/01/21 08:44:53;;;;;;;2.10;1.43;;;;;;;-145.69;53.06;52412.69;5133999;27;20299;-80
2024/01/21 08:47:19;;;;;;;2.57;1.40;;;;;;;-145.69;52.04;52384.97;5133982;27;20702;-82
2024/01/21 08:49:46;;;;;;;4.43;1.67;;;;;;;-145.69;52.04;52329.53;5134286;27;20204;-80
2024/01/21 08:52:12;;;;;;;3.77;2.07;;;;;;;-145.69;51.81;52381.00;5133692;27;20208;-82
2024/01/21 08:54:39;;;;;;;2.40;2.00;;;;;;;-145.69;51.25;52347.34;5134793;27;20207;-82
2024/01/21 08:57:05;;;;;;;8.27;2.13;;;;;;;-145.69;50.62;52384.97;5136657;28;20203;-81
2024/01/21 08:59:33;;;;;;;5.50;1.67;;;;;;;-145.69;49.99;52347.34;5135816;28;20227;-82
2024/01/21 09:01:59;;;;;;;2.20;1.47;;;;;;;-145.69;49.70;52363.19;5140874;27;20224;-81
2024/01/21 09:04:26;;;;;;;3.57;1.40;;;;;;;-145.69;48.26;52339.44;5137542;27;20199;-80
2024/01/21 09:06:52;;;;;;;5.20;1.77;;;;;;;-145.69;48.11;52379.03;5137144;28;20193;-81
2024/01/21 09:09:19;;;;;;;2.00;1.70;;;;;;;-145.69;47.63;52392.91;5138527;27;20208;-81
2024/01/21 09:11:47;;;;;;;2.13;1.43;;;;;;;-145.69;47.42;52384.97;5137207;28;20203;-81
2024/01/21 09:14:13;;;;;;;3.60;1.50;;;;;;;-145.69;46.38;52355.28;5137190;27;20674;-81
2024/01/21 09:16:41;;;;;;;4.30;1.97;;;;;;;-145.69;45.37;52345.38;5139754;28;20192;-82
2024/01/21 09:19:08;;;;;;;2.30;1.70;;;;;;;-145.69;45.53;52369.13;5136217;28;20252;-81
2024/01/21 09:21:34;;;;;;;3.90;1.53;;;;;;;-145.69;45.14;52357.25;5136677;27;20197;-81
2024/01/21 09:24:04;;;;;;;2.90;1.60;;;;;;;-145.69;44.53;52321.59;5135971;28;20206;-82
2024/01/21 09:26:30;;;;;;;3.10;1.67;;;;;;;-145.69;44.20;52329.53;5137324;27;20196;-81
2024/01/21 09:28:57;;;;;;;4.40;1.43;;;;;;;-145.69;44.82;52335.47;5136501;27;20196;-81
2024/01/21 09:31:23;;;;;;;5.83;1.70;;;;;;;-145.69;44.42;52313.69;5135343;28;20218;-82
2024/01/21 09:33:51;;;;;;;2.53;1.67;;;;;;;-145.69;43.57;52357.25;5134931;28;20197;-82
2024/01/21 09:36:19;;;;;;;2.87;1.80;;;;;;;-145.69;44.55;52333.47;5134787;27;20655;-82
2024/01/21 09:38:56;;;;;;;3.90;2.23;;;;;;;-145.69;42.81;52361.22;5138434;27;20216;-82
2024/01/21 09:41:29;;;;;;;8.83;3.67;;;;;;;-145.69;43.22;52345.38;5140183;27;20196;-82
2024/01/21 09:43:56;;;;;;;15.87;5.73;;;;;;;-145.69;43.35;52329.53;5139248;27;20203;-82
2024/01/21 09:46:24;;;;;;;18.17;5.27;;;;;;;-145.69;42.87;52335.47;5139843;27;20217;-82
2024/01/21 09:48:53;;;;;;;8.77;3.20;;;;;;;-145.69;42.89;52307.75;5139784;27;20228;-81
2024/01/21 09:51:20;;;;;;;14.30;4.63;;;;;;;-145.69;41.04;52315.66;5139801;27;20200;-82
2024/01/21 09:53:47;;;;;;;8.50;2.80;;;;;;;-145.69;39.54;52297.84;5138518;27;20197;-82
2024/01/21 09:56:14;;;;;;;8.27;3.03;;;;;;;-145.69;42.46;52335.47;5141734;27;20666;-82
2024/01/21 09:58:46;;;;;;;16.43;3.67;;;;;;;-145.69;42.36;52285.97;5138604;27;20228;-82
2024/01/21 10:01:13;;;;;;;15.20;4.87;;;;;;;-145.69;41.18;52317.66;5137667;27;20201;-81
2024/01/21 10:03:39;;;;;;;8.47;3.47;;;;;;;-145.69;41.52;52337.44;5137552;27;20226;-82
2024/01/21 10:06:07;;;;;;;8.88;4.40;;;;;;;-145.69;43.54;52309.72;5136434;27;20515;-82
2024/01/21 10:08:37;;;;;;;9.63;3.20;;;;;;;-145.69;41.85;52319.63;5137144;27;20225;-80
2024/01/21 10:11:04;;;;;;;10.33;3.20;;;;;;;-145.69;44.90;52285.97;5136932;27;20237;-80
2024/01/21 10:13:31;;;;;;;14.37;3.73;;;;;;;-145.69;41.70;52333.47;5136825;27;20651;-82
2024/01/21 10:15:58;;;;;;;9.50;3.67;;;;;;;-145.69;40.11;52291.91;5136887;27;20209;-82
2024/01/21 10:18:26;;;;;;;6.37;3.07;;;;;;;-145.69;40.96;52333.47;5136645;27;20205;-82
2024/01/21 10:20:53;;;;;;;5.90;2.50;;;;;;;-145.69;40.35;52299.81;5140102;27;20200;-81
2024/01/21 10:23:21;;;;;;;10.00;2.27;;;;;;;-145.69;39.52;52285.97;5135381;27;20192;-81
2024/01/21 10:25:48;;;;;;;3.30;2.00;;;;;;;-145.69;40.67;52299.81;5136353;27;20665;-81
2024/01/21 10:28:15;;;;;;;7.43;1.80;;;;;;;-145.69;41.76;52309.72;5136683;27;20242;-80
2024/01/21 10:30:43;;;;;;;2.50;1.43;;;;;;;-145.69;41.28;52291.91;5136259;27;20555;-81
2024/01/21 10:33:09;;;;;;;3.57;1.70;;;;;;;-145.69;39.67;52307.75;5136489;27;20211;-81
2024/01/21 10:35:36;;;;;;;3.13;1.90;;;;;;;-145.69;40.80;52337.44;5136217;27;20197;-81
2024/01/21 10:38:05;;;;;;;7.77;2.17;;;;;;;-145.69;44.22;52311.69;5134567;27;20197;-80
2024/01/21 10:40:33;;;;;;;2.87;1.60;;;;;;;-145.69;43.89;52262.19;5134124;27;20629;-80
2024/01/21 10:43:01;;;;;;;3.63;1.80;;;;;;;-145.69;42.74;52297.84;5115512;28;20205;-81
2024/01/21 10:45:27;;;;;;;3.93;2.37;;;;;;;-145.69;41.32;52280.00;5115683;28;20214;-80
2024/01/21 10:47:54;;;;;;;4.87;2.40;;;;;;;-145.69;41.91;52317.66;5114890;28;20233;-81
2024/01/21 10:50:21;;;;;;;9.13;3.37;;;;;;;-145.69;39.77;52293.88;5115403;28;20201;-80
2024/01/21 10:52:49;;;;;;;4.57;2.63;;;;;;;-145.69;41.06;52289.91;5134365;27;20199;-80
2024/01/21 10:55:16;;;;;;;5.83;2.73;;;;;;;-145.69;40.85;52278.03;5135545;27;20666;-80
2024/01/21 10:57:47;;;;;;;5.30;2.80;;;;;;;-145.69;38.44;52254.28;5136089;27;20566;-80
2024/01/21 11:00:15;;;;;;;4.17;1.77;;;;;;;-145.69;38.13;52285.97;5135753;27;20713;-79
2024/01/21 11:02:41;;;;;;;3.20;1.90;;;;;;;-145.69;40.00;52313.69;5135525;27;20200;-79
2024/01/21 11:05:09;;;;;;;5.43;2.20;;;;;;;-145.69;39.96;52274.06;5136111;27;20197;-80
2024/01/21 11:07:37;;;;;;;3.50;1.97;;;;;;;-145.69;37.34;52309.72;5136039;27;20197;-79
2024/01/21 11:10:06;;;;;;;13.20;2.10;;;;;;;-145.69;36.91;52246.34;5135381;27;20200;-80
2024/01/21 11:12:33;;;;;;;9.53;2.10;;;;;;;-145.69;37.73;52270.13;5135515;27;20199;-79
2024/01/21 11:15:29;;;;;;;6.23;1.63;;;;;;;-145.69;37.02;52301.81;5135771;27;20292;-79
2024/01/21 11:18:08;;;;;;;4.53;1.80;;;;;;;-145.69;40.54;52293.88;5135246;27;20245;-79